LEBZ/BJZ METAR and TAF weather

Enter ICAO airport designator
Station Type Date Time Source
LEBZ METAR 2021/02/27 20:00 UTC NOAA

LEBZ 272000Z 04004KT CAVOK 12/07 Q1019


Station Type Date Time Source
LEBZ Decoded METAR 2021/02/27 20:00 UTC NOAA

Badajoz / Talavera La Real, Spain (LEBZ) 38-53N 006-49W 192M
Feb 27, 2021 - 03:00 PM EST / 2021.02.27 2000 UTC
Wind: from the NE (040 degrees) at 5 MPH (4 KT):0
Visibility: greater than 7 mile(s):0
Temperature: 53 F (12 C)
Dew Point: 44 F (7 C)
Relative Humidity: 71%
Pressure (altimeter): 30.09 in. Hg (1019 hPa)
ob: LEBZ 272000Z 04004KT CAVOK 12/07 Q1019
cycle: 20

Station Type Date Time Source
LEBZ TAF 2021/02/27 18:33 UTC NOAA

TAF LEBZ 271700Z 2718/2818 04005KT CAVOK TX19/2815Z TN04/2806Z PROB30
TEMPO 2806/2809 4000 BR

Example: see airport list